Dorothy Ann — WDE8761 — position and weather

sailwx.info

Track history (hours):
 
Tides and Currents Weather Stations Pressure Air Temp Water Temp Dewpoint Dewpoint Depression Visibility Wind Speed Wind Dir Waves Ship Positions

Dorothy Ann

Owner: THE INTERLAKE STEAMSHIP COMPANY, Middleburg Heights, OH. More information available from US FCC via Universal Licensing System and Coast Guard Vessel Documentation Center.

Last reported at 2015-Mar-27 08:00 UTC. Time now 2015-Mar-27 10:20 UTC.
Position N 41°30' W 081°42'.

Length 215 m; draft 5.9 m.

Type: Cargo ship. MMSI: 367409260.

Wind from 340 at 13 knots

Barometer 1013.0 mb
Air temperature 0.6 ° C
Water temperature 42.6 ° C

Date/timePositionNaut miles runAvg speedWind from/ knotsBaromVisibWave heightAir tempDewpointWater temp
2015-Mar-27 08:00N 41°30' W 081°42'0 0.0 340 / 131013.0 0.6 42.6
2015-Mar-27 06:00N 41°30' W 081°42'0 0.0 280 / 91013.0 0.7 42.6
2015-Mar-27 05:00N 41°30' W 081°42'0 0.0 290 / 131013.0 1.5 42.6
2015-Mar-27 04:00N 41°30' W 081°42'0 0.0 280 / 81013.0 2.3 42.3
2015-Mar-27 00:00N 41°30' W 081°42'0 0.0 240 / 41012.4 3.7 42.6
2015-Mar-26 23:00N 41°30' W 081°42'0 0.0 240 / 41012.0 3.6 42.6
2015-Mar-26 22:00N 41°30' W 081°42'0 0.0 270 / 81011.7 3.4 42.6
2015-Mar-26 21:00N 41°30' W 081°42'0 0.0 340 / 31011.0 3.0 42.6
2015-Mar-26 20:00N 41°30' W 081°42'0 0.0 320 / 61011.3 1.9 42.6
2015-Mar-26 19:00N 41°30' W 081°42'0 0.0 320 / 31010.3 0.9 42.6
2015-Mar-26 18:00N 41°30' W 081°42'0 0.0 330 / 41011.3 0.9 42.6
2015-Mar-26 17:00N 41°30' W 081°42'0 0.0 330 / 101011.3 0.1 42.6
2015-Mar-26 16:00N 41°30' W 081°42'0 0.0 350 / 71011.0 1.0 42.6
2015-Mar-26 15:00N 41°30' W 081°42'0 0.0 020 / 51011.7 1.0 42.6
2015-Mar-26 14:00N 41°30' W 081°42'0 0.0 030 / 101011.7 1.3 42.6
2015-Mar-26 13:00N 41°30' W 081°42'0 0.0 340 / 11012.0 1.7 42.6
2015-Mar-26 12:00N 41°30' W 081°42'0 0.0 030 / 41012.0 2.1 42.6
2015-Mar-26 11:00N 41°30' W 081°42'0 0.0 050 / 71012.4 2.0 42.6
2015-Mar-26 10:00N 41°30' W 081°42'0 0.0 330 / 51013.4 2.6 42.6
2015-Mar-26 09:00N 41°30' W 081°42'0 0.0 340 / 111012.0 3.4 42.6
2015-Mar-26 08:00N 41°30' W 081°42'0 0.0 300 / 61014.0 6.5 42.6
2015-Mar-26 07:00N 41°30' W 081°42'0 0.0 280 / 91015.7 7.0 42.6
2015-Mar-26 06:00N 41°30' W 081°42'0 0.0 330 / 41016.1 4.1 42.6
2015-Mar-26 05:00N 41°30' W 081°42'0 0.0 260 / 41015.4 8.9 42.6
2015-Mar-26 04:00N 41°30' W 081°42'0 0.0 220 / 51015.4 9.9 42.6
2015-Mar-26 03:00N 41°30' W 081°42'0 0.0 220 / 61015.7 10.4 42.6
2015-Mar-26 02:00N 41°30' W 081°42'0 0.0 250 / 71016.4 10.7 42.6
2015-Mar-26 00:00N 41°30' W 081°42'0 0.0 220 / 91016.1 12.2 42.6
2015-Mar-25 23:00N 41°30' W 081°42'0 0.0 230 / 111015.7 12.5 42.6
2015-Mar-25 22:00N 41°30' W 081°42'0 0.0 240 / 141015.4 13.0 42.6
2015-Mar-25 21:00N 41°30' W 081°42'0 0.0 300 / 131015.1 6.1 42.6
2015-Mar-25 20:00N 41°30' W 081°42'0 0.0 250 / 171014.4 12.2 42.6
2015-Mar-25 19:00N 41°30' W 081°42'0 0.0 230 / 171013.4 12.7 42.6
2015-Mar-25 18:00N 41°30' W 081°42'0 0.0 240 / 201013.4 12.4 42.6
2015-Mar-25 16:00N 41°30' W 081°42'0 0.0 200 / 171012.0 11.3 42.6
2015-Mar-25 15:00N 41°30' W 081°42'0 0.0 150 / 161012.7 6.2 42.6
2015-Mar-25 14:00N 41°30' W 081°42'0 0.0 140 / 181013.0 4.5 42.6
2015-Mar-25 12:00N 41°30' W 081°42'0 0.0 150 / 241014.7 3.5 42.6
2015-Mar-25 11:00N 41°30' W 081°42'0 0.0 140 / 201016.4 3.3 42.6
2015-Mar-25 10:00N 41°30' W 081°42'0 0.0 150 / 151016.8 3.7 42.6
2015-Mar-25 09:00N 41°30' W 081°42'0 0.0 140 / 111018.1 3.0 42.6
2015-Mar-25 08:00N 41°30' W 081°42'0 0.0 150 / 101019.1 2.6 42.6
2015-Mar-25 07:00N 41°30' W 081°42'0 0.0 150 / 91020.5 2.0 42.6
2015-Mar-25 06:00N 41°30' W 081°42'0 0.0 140 / 51021.5 1.3 42.6
2015-Mar-25 05:00N 41°30' W 081°42'0 0.0 180 / 21022.2 1.7 42.6
2015-Mar-25 03:00N 41°30' W 081°42'0 0.0 050 / 31023.2 -1.0 42.6
2015-Mar-25 02:00N 41°30' W 081°42'0 0.0 080 / 31023.9 -1.2 42.6
2015-Mar-25 01:00N 41°30' W 081°42'0 0.0 060 / 61024.2 -1.5 42.6
2015-Mar-25 00:00N 41°30' W 081°42'0 0.0 060 / 121024.2 -1.4 42.6
2015-Mar-24 23:00N 41°30' W 081°42'0 0.0 050 / 151024.9 -1.0 42.6
2015-Mar-24 22:00N 41°30' W 081°42'0 0.0 050 / 141024.9 -1.1 42.6
2015-Mar-24 21:00N 41°30' W 081°42'0 0.0 050 / 151025.2 -1.4 42.6
2015-Mar-24 20:00N 41°30' W 081°42'0 0.0 050 / 141025.9 -2.4 42.4
2015-Mar-24 18:00N 41°30' W 081°42'0 0.0 030 / 121026.9 -2.7 42.6
2015-Mar-24 17:00N 41°30' W 081°42'0 0.0 040 / 101027.3 -3.2 42.6
2015-Mar-24 16:00N 41°30' W 081°42'0 0.0 020 / 61027.3 -3.4 42.6
2015-Mar-24 15:00N 41°30' W 081°42'0 0.0 030 / 71027.3 -4.5 42.6
2015-Mar-24 14:00N 41°30' W 081°42'0 0.0 040 / 101026.9 -5.6 42.6
2015-Mar-24 13:00N 41°30' W 081°42'0 0.0 040 / 101026.6 -5.9 42.6
2015-Mar-24 11:00N 41°30' W 081°42'0 0.0 040 / 91026.2 -5.9 42.6
2015-Mar-24 10:00N 41°30' W 081°42'0 0.0 060 / 141025.6 -6.1 42.6
2015-Mar-24 09:00N 41°30' W 081°42'0 0.0 050 / 161025.2 -5.9 42.6
2015-Mar-24 08:00N 41°30' W 081°42'0 0.0 050 / 131025.2 -5.8 42.6
2015-Mar-24 07:00N 41°30' W 081°42'0 0.0 060 / 111025.9 -5.4 42.6
2015-Mar-24 06:00N 41°30' W 081°42'0 0.0 040 / 111025.6 -5.2 42.6
2015-Mar-24 05:00N 41°30' W 081°42'0 0.0 040 / 111025.6 -5.0 42.6
2015-Mar-24 04:00N 41°30' W 081°42'0 0.0 040 / 101025.6 -5.0 42.6
2015-Mar-24 03:00N 41°30' W 081°42'0 0.0 050 / 121025.6 -4.8 42.6
2015-Mar-24 02:00N 41°30' W 081°42'0 0.0 030 / 91025.6 -4.5 42.6
2015-Mar-24 01:00N 41°30' W 081°42'0 0.0 030 / 71025.9 -4.2 42.6
2015-Mar-24 00:00N 41°30' W 081°42'0 0.0 050 / 71025.6 -3.7 42.6
2015-Mar-23 23:00N 41°30' W 081°42'0 0.0 010 / 71025.6 -3.3 42.6
2015-Mar-23 22:00N 41°30' W 081°42'0 0.0 020 / 81025.2 -3.6 42.6
2015-Mar-23 21:00N 41°30' W 081°42'0 0.0 020 / 141025.6 -3.8 42.6
2015-Mar-23 20:00N 41°30' W 081°42'0 0.0 020 / 131024.9 -3.6 42.6
2015-Mar-23 19:00N 41°30' W 081°42'0 0.0 350 / 71025.6 -2.9 42.6
2015-Mar-23 18:00N 41°30' W 081°42'0 0.0 040 / 71026.2 -2.5 42.6
2015-Mar-23 17:00N 41°30' W 081°42'0 0.0 030 / 141026.9 -3.5 42.6
2015-Mar-23 16:00N 41°30' W 081°42'0 0.0 030 / 161026.9 -3.7 40.9
2015-Mar-23 15:00N 41°30' W 081°42'0 0.0 040 / 141027.6 -3.7 42.0
2015-Mar-23 14:00N 41°30' W 081°42'0 0.0 050 / 111026.9 -3.3 42.6
2015-Mar-23 13:00N 41°30' W 081°42'0 0.0 070 / 61026.9 -2.7 42.4
2015-Mar-23 12:00N 41°30' W 081°42'0 0.0 130 / 51026.6 -3.3 42.4
2015-Mar-23 11:00N 41°30' W 081°42'0 0.0 120 / 21026.2 -3.9 42.0
2015-Mar-23 10:00N 41°30' W 081°42'0 0.0 060 / 61025.6 -4.6 41.9
2015-Mar-23 09:00N 41°30' W 081°42'0 0.0 090 / 21025.9 -4.4 42.6
2015-Mar-23 08:00N 41°30' W 081°42'0 0.0 140 / 31025.6 -4.4 42.6
2015-Mar-23 06:00N 41°30' W 081°42'0 0.0 150 / 21025.9 -4.1 42.6
2015-Mar-23 05:00N 41°30' W 081°42'0 0.0 160 / 41025.2 -3.9 42.6
2015-Mar-23 04:00N 41°30' W 081°42'0 0.0 180 / 21025.2 -3.7 42.6
2015-Mar-23 03:00N 41°30' W 081°42'0 0.0 140 / 51024.9 -3.5 42.6
2015-Mar-23 02:00N 41°30' W 081°42'0 0.0 130 / 41025.2 -3.5 42.6
2015-Mar-23 01:00N 41°30' W 081°42'0 0.0 050 / 51025.2 -3.7 42.5
2015-Mar-23 00:00N 41°30' W 081°42'0 0.0 060 / 51024.9 -4.0 42.6
2015-Mar-22 23:00N 41°30' W 081°42'0 0.0 050 / 31024.9 -3.8 42.6
2015-Mar-22 22:00N 41°30' W 081°42'0 0.0 340 / 61024.9 -2.8 42.6
2015-Mar-22 21:00N 41°30' W 081°42'0 0.0 360 / 81025.2 -2.7 42.4
2015-Mar-22 20:00N 41°30' W 081°42'0 0.0 340 / 71025.2 -3.1 42.6
2015-Mar-22 19:00N 41°30' W 081°42'0 0.0 350 / 71025.9 -3.1 42.6
2015-Mar-22 18:00N 41°30' W 081°42'0 0.0 340 / 71026.6 -3.9 42.6
2015-Mar-22 17:00N 41°30' W 081°42'0 0.0 020 / 81026.9 -4.9 42.2
2015-Mar-22 16:00N 41°30' W 081°42'0 0.0 010 / 91026.9 -4.9 42.5
2015-Mar-22 15:00N 41°30' W 081°42'0 0.0 010 / 111026.9 -5.2 42.6
2015-Mar-22 14:00N 41°30' W 081°42'0 0.0 1026.2 -5.2 42.6
2015-Mar-22 13:00N 41°30' W 081°42'0 0.0 020 / 141026.2 -5.4 42.6
2015-Mar-22 12:00N 41°30' W 081°42'0 0.0 010 / 121025.9 -4.9 42.6
2015-Mar-22 11:00N 41°30' W 081°42'0 0.0 020 / 161024.9 -4.9 42.6
2015-Mar-22 10:00N 41°30' W 081°42'0 0.0 020 / 171024.5 -4.3 42.6
2015-Mar-22 09:00N 41°30' W 081°42'0 0.0 010 / 91024.2 -3.2 42.6
2015-Mar-22 07:00N 41°30' W 081°42'0 0.0 020 / 111023.5 -2.5 42.6
2015-Mar-22 06:00N 41°30' W 081°42'0 0.0 020 / 91023.9 -1.8 42.6
2015-Mar-22 05:00N 41°30' W 081°42'0 0.0 020 / 101023.5 -1.3 42.5
2015-Mar-22 04:00N 41°30' W 081°42'0 0.0 1022.9 -0.0 42.6
2015-Mar-22 03:00N 41°30' W 081°42'0 0.0 030 / 41021.5 -0.1 42.6
2015-Mar-22 02:00N 41°30' W 081°42'0 0.0 050 / 31020.5 1.1 42.5
2015-Mar-22 01:00N 41°30' W 081°42'0 0.0 050 / 71019.5 1.9 42.0
2015-Mar-22 00:00N 41°30' W 081°42'0 0.0 250 / 11018.8 3.8 42.6
2015-Mar-21 23:00N 41°30' W 081°42'0 0.0 080 / 21019.1 4.2 42.6
2015-Mar-21 22:00N 41°30' W 081°42'0 0.0 350 / 81018.8 2.1 42.6
2015-Mar-21 21:00N 41°30' W 081°42'0 0.0 020 / 101018.1 1.8 42.6
2015-Mar-21 20:00N 41°30' W 081°42'0 0.0 290 / 101017.4 7.9 42.6
2015-Mar-21 19:00N 41°30' W 081°42'0 0.0 280 / 111017.1 6.4 42.6
2015-Mar-21 18:00N 41°30' W 081°42'0 0.0 300 / 71017.4 5.5 42.6
2015-Mar-21 17:00N 41°30' W 081°42'0 0.0 290 / 71017.1 3.6 42.6
2015-Mar-21 16:00N 41°30' W 081°42'0 0.0 320 / 141016.4 2.5 42.6
2015-Mar-21 15:00N 41°30' W 081°42'0 0.0 240 / 151016.8 7.6 42.6
2015-Mar-21 14:00N 41°30' W 081°42'0 0.0 240 / 181016.4 6.8 42.6
2015-Mar-21 13:00N 41°30' W 081°42'0 0.0 240 / 131016.1 6.3 42.6
2015-Mar-21 11:00N 41°30' W 081°42'0 0.0 230 / 111015.7 6.1 42.6
2015-Mar-21 10:00N 41°30' W 081°42'0 0.0 220 / 91015.7 6.2 42.4
2015-Mar-21 09:00N 41°30' W 081°42'0 0.0 230 / 61016.1 6.1 42.6
2015-Mar-21 08:00N 41°30' W 081°42'0 0.0 230 / 121016.4 6.0 42.6
2015-Mar-21 06:00N 41°30' W 081°42'0 0.0 230 / 91017.8 5.7 42.6
2015-Mar-21 05:00N 41°30' W 081°42'0 0.0 230 / 91017.8 5.5 42.6
2015-Mar-21 04:00N 41°30' W 081°42'0 0.0 250 / 91018.1 5.7 42.6
2015-Mar-21 03:00N 41°30' W 081°42'0 0.0 250 / 81018.1 6.3 42.5
2015-Mar-21 02:00N 41°30' W 081°42'0 0.0 180 / 61018.1 6.4 41.8
2015-Mar-21 01:00N 41°30' W 081°42'0 0.0 140 / 31018.1 6.5 42.6
2015-Mar-21 00:00N 41°30' W 081°42'0 0.0 230 / 11018.1 9.7 42.6
2015-Mar-20 23:00N 41°30' W 081°42'0 0.0 040 / 21017.8 6.6 42.6
2015-Mar-20 22:00N 41°30' W 081°42'0 0.0 340 / 41018.1 5.3 42.6
2015-Mar-20 21:00N 41°30' W 081°42'0 0.0 360 / 71018.8 4.5 42.6
2015-Mar-20 20:00N 41°30' W 081°42'0 0.0 330 / 91018.8 5.0 42.6
2015-Mar-20 19:00N 41°30' W 081°42'0 0.0 300 / 41018.8 4.6 42.6
2015-Mar-20 18:00N 41°30' W 081°42'0 0.0 320 / 41019.1 4.1 42.6
2015-Mar-20 17:00N 41°30' W 081°42'0 0.0 300 / 71019.5 2.5 39.9
2015-Mar-20 16:00N 41°30' W 081°42'0 0.0 290 / 71019.5 3.5 42.2
2015-Mar-20 15:00N 41°30' W 081°42'0 0.0 190 / 11019.8 0.4 42.0
2015-Mar-20 14:00N 41°30' W 081°42'0 0.0 020 / 21019.8 -0.1 41.8
2015-Mar-20 13:00N 41°30' W 081°42'0 0.0 140 / 21019.1 1.5 41.2
2015-Mar-20 12:00N 41°30' W 081°42'0 0.0 230 / 11019.1 0.5 42.1
2015-Mar-20 11:00N 41°30' W 081°42'0 0.0 290 / 21019.1 -0.5 42.4
2015-Mar-20 10:00N 41°30' W 081°42'0 0.0 030 / 21018.5 -0.6 42.0
2015-Mar-20 09:00N 41°30' W 081°42'0 0.0 040 / 91018.1 -0.9 42.6
2015-Mar-20 08:00N 41°30' W 081°42'0 0.0 040 / 81018.1 -0.7 41.7
2015-Mar-20 07:00N 41°30' W 081°42'0 0.0 160 / 41018.8 1.6 41.5
2015-Mar-20 06:00N 41°30' W 081°42'0 0.0 040 / 61019.5 -0.8 40.1
2015-Mar-20 05:00N 41°30' W 081°42'0 0.0 050 / 51020.5 -0.4 41.0
2015-Mar-20 04:00N 41°30' W 081°42'0 0.0 050 / 111021.8 -1.2 38.9
2015-Mar-20 03:00N 41°30' W 081°42'0 0.0 040 / 91022.2 -1.1 41.3
2015-Mar-20 02:00N 41°30' W 081°42'0 0.0 050 / 111022.5 -1.3 42.0
2015-Mar-20 01:00N 41°30' W 081°42'0 0.0 050 / 131022.5 -1.8 40.1
2015-Mar-20 00:00N 41°30' W 081°42'0 0.0 310 / 31022.9 1.3 42.6
2015-Mar-19 23:00N 41°30' W 081°42'0 0.0 010 / 41023.2 1.2 42.6
2015-Mar-19 22:00N 41°30' W 081°42'0 0.0 340 / 71022.9 2.0 42.6
2015-Mar-19 21:00N 41°30' W 081°42'0 0.0 360 / 101023.5 1.8 42.6
2015-Mar-19 20:00N 41°30' W 081°42'0 0.0 030 / 91023.9 2.4 42.6
2015-Mar-19 18:00N 41°30' W 081°42'0 0.0 030 / 121025.9 0.9 42.6
2015-Mar-19 17:00N 41°30' W 081°42'0 0.0 060 / 51026.9 1.0 42.6
2015-Mar-19 16:00N 41°30' W 081°42'0 0.0 040 / 121027.6 -0.5 42.6
2015-Mar-19 15:00N 41°30' W 081°42'0 0.0 020 / 61027.9 -0.5 42.6
2015-Mar-19 14:00N 41°30' W 081°42'0 0.0 130 / 61027.6 1.7 42.6
2015-Mar-19 13:00N 41°30' W 081°42'0 0.0 090 / 61027.6 0.2 42.6
2015-Mar-19 12:00N 41°30' W 081°42'0 0.0 060 / 61026.9 -2.6 42.6
2015-Mar-19 11:00N 41°30' W 081°42'0 0.0 050 / 91026.2 -3.1 42.6
2015-Mar-19 10:00N 41°30' W 081°42'0 0.0 050 / 61026.2 -2.8 42.6
2015-Mar-19 09:00N 41°30' W 081°42'0 0.0 050 / 71025.9 -2.8 42.6
2015-Mar-19 08:00N 41°30' W 081°42'0 0.0 1025.2 0.4 42.6
2015-Mar-19 07:00N 41°30' W 081°42'0 0.0 340 / 61024.9 0.9 42.6
2015-Mar-19 06:00N 41°30' W 081°42'0 0.0 060 / 61024.2 2.2 42.6
2015-Mar-19 04:00N 41°30' W 081°42'0 0.0 030 / 31023.9 1.7 42.6
2015-Mar-19 03:00N 41°30' W 081°42'0 0.0 180 / 21023.5 3.0 42.6
2015-Mar-19 02:00N 41°30' W 081°42'0 0.0 270 / 11023.5 3.1 42.6
2015-Mar-19 01:00N 41°30' W 081°42'0 0.0 320 / 21023.2 3.5 42.6
2015-Mar-19 00:00N 41°30' W 081°42'0 0.0 060 / 51023.2 1.4 42.6
2015-Mar-18 22:00N 41°30' W 081°42'0 0.0 270 / 131022.5 4.2 42.6
2015-Mar-18 21:00N 41°30' W 081°42'0 0.0 270 / 131022.5 3.4 42.6
2015-Mar-18 20:00N 41°30' W 081°42'0 0.0 280 / 141022.9 3.2 42.6
2015-Mar-18 19:00N 41°30' W 081°42'0 0.0 290 / 161023.2 3.2 42.6
2015-Mar-18 18:00N 41°30' W 081°42'0 0.0 280 / 141023.9 2.5 42.6
2015-Mar-18 17:00N 41°30' W 081°42'0 0.0 290 / 111024.5 2.4 42.6
2015-Mar-18 14:00N 41°30' W 081°42'0 0.0 280 / 121025.6 -0.6 42.6
2015-Mar-18 13:00N 41°30' W 081°42'0 0.0 260 / 91025.2 -0.9 42.6
2015-Mar-18 11:00N 41°30' W 081°42'0 0.0 290 / 31025.2 0.4 42.6
2015-Mar-18 09:00N 41°30' W 081°42'0 0.0 320 / 21024.2 1.5 42.6
2015-Mar-18 08:00N 41°30' W 081°42'0 0.0 350 / 71024.2 -0.9 42.6
2015-Mar-18 06:00N 41°30' W 081°42'0 0.0 340 / 81024.5 -1.1 42.6
2015-Mar-18 05:00N 41°30' W 081°42'0 0.0 350 / 81024.2 -0.4 42.6
2015-Mar-18 04:00N 41°30' W 081°42'0 0.0 360 / 131024.2 0.3 42.6
2015-Mar-18 03:00N 41°30' W 081°42'0 0.0 320 / 131023.5 1.3 42.6
2015-Mar-18 02:00N 41°30' W 081°42'0 0.0 260 / 41022.5 1.7 42.6
2015-Mar-18 00:00N 41°30' W 081°42'0 0.0 290 / 71021.8 2.0 42.6
2015-Mar-17 23:00N 41°30' W 081°42'0 0.0 320 / 61022.2 2.4 42.6
2015-Mar-17 21:00N 41°30' W 081°42'0 0.0 360 / 81021.8 1.4 42.6
2015-Mar-17 19:00N 41°30' W 081°42'0 0.0 360 / 111021.8 1.8 42.6
2015-Mar-17 17:00N 41°30' W 081°42'0 0.0 350 / 151021.5 1.7 42.6
2015-Mar-17 15:00N 41°30' W 081°42'0 0.0 360 / 131019.8 1.5 42.6
2015-Mar-17 14:00N 41°30' W 081°42'0 0.0 360 / 191018.8 2.1 42.6
2015-Mar-17 13:00N 41°30' W 081°42'0 0.0 340 / 151016.4 3.4 42.6
2015-Mar-17 12:00N 41°30' W 081°42'0 0.0 310 / 71014.7 3.8 42.6
2015-Mar-17 11:00N 41°30' W 081°42'0 0.0 1013.0 3.3 42.6
2015-Mar-17 10:00N 41°30' W 081°42'0 0.0 330 / 91012.0 3.3 42.6
2015-Mar-17 08:00N 41°30' W 081°42'   010 / 141008.6 7.4 42.6
Track history (hours):
 
Tides and Currents Weather Stations Pressure Air Temp Water Temp Dewpoint Dewpoint Depression Visibility Wind Speed Wind Dir Waves Ship Positions

Dorothy Ann

Owner: THE INTERLAKE STEAMSHIP COMPANY, Middleburg Heights, OH. More information available from US FCC via Universal Licensing System and Coast Guard Vessel Documentation Center.

Last reported at 2015-Mar-27 08:00 UTC. Time now 2015-Mar-27 10:20 UTC.
Position N 41°30' W 081°42'.

Length 215 m; draft 5.9 m.

Type: Cargo ship. MMSI: 367409260.

Wind from 340 at 13 knots

Barometer 1013.0 mb
Air temperature 0.6 ° C
Water temperature 42.6 ° C

Date/timePositionNaut miles runAvg speedWind from/ knotsBaromVisibWave heightAir tempDewpointWater temp
2015-Mar-27 08:00N 41°30' W 081°42'0 0.0 340 / 131013.0 0.6 42.6
2015-Mar-27 06:00N 41°30' W 081°42'0 0.0 280 / 91013.0 0.7 42.6
2015-Mar-27 05:00N 41°30' W 081°42'0 0.0 290 / 131013.0 1.5 42.6
2015-Mar-27 04:00N 41°30' W 081°42'0 0.0 280 / 81013.0 2.3 42.3
2015-Mar-27 00:00N 41°30' W 081°42'0 0.0 240 / 41012.4 3.7 42.6
2015-Mar-26 23:00N 41°30' W 081°42'0 0.0 240 / 41012.0 3.6 42.6
2015-Mar-26 22:00N 41°30' W 081°42'0 0.0 270 / 81011.7 3.4 42.6
2015-Mar-26 21:00N 41°30' W 081°42'0 0.0 340 / 31011.0 3.0 42.6
2015-Mar-26 20:00N 41°30' W 081°42'0 0.0 320 / 61011.3 1.9 42.6
2015-Mar-26 19:00N 41°30' W 081°42'0 0.0 320 / 31010.3 0.9 42.6
2015-Mar-26 18:00N 41°30' W 081°42'0 0.0 330 / 41011.3 0.9 42.6
2015-Mar-26 17:00N 41°30' W 081°42'0 0.0 330 / 101011.3 0.1 42.6
2015-Mar-26 16:00N 41°30' W 081°42'0 0.0 350 / 71011.0 1.0 42.6
2015-Mar-26 15:00N 41°30' W 081°42'0 0.0 020 / 51011.7 1.0 42.6
2015-Mar-26 14:00N 41°30' W 081°42'0 0.0 030 / 101011.7 1.3 42.6
2015-Mar-26 13:00N 41°30' W 081°42'0 0.0 340 / 11012.0 1.7 42.6
2015-Mar-26 12:00N 41°30' W 081°42'0 0.0 030 / 41012.0 2.1 42.6
2015-Mar-26 11:00N 41°30' W 081°42'0 0.0 050 / 71012.4 2.0 42.6
2015-Mar-26 10:00N 41°30' W 081°42'0 0.0 330 / 51013.4 2.6 42.6
2015-Mar-26 09:00N 41°30' W 081°42'0 0.0 340 / 111012.0 3.4 42.6
2015-Mar-26 08:00N 41°30' W 081°42'0 0.0 300 / 61014.0 6.5 42.6
2015-Mar-26 07:00N 41°30' W 081°42'0 0.0 280 / 91015.7 7.0 42.6
2015-Mar-26 06:00N 41°30' W 081°42'0 0.0 330 / 41016.1 4.1 42.6
2015-Mar-26 05:00N 41°30' W 081°42'0 0.0 260 / 41015.4 8.9 42.6
2015-Mar-26 04:00N 41°30' W 081°42'0 0.0 220 / 51015.4 9.9 42.6
2015-Mar-26 03:00N 41°30' W 081°42'0 0.0 220 / 61015.7 10.4 42.6
2015-Mar-26 02:00N 41°30' W 081°42'0 0.0 250 / 71016.4 10.7 42.6
2015-Mar-26 00:00N 41°30' W 081°42'0 0.0 220 / 91016.1 12.2 42.6
2015-Mar-25 23:00N 41°30' W 081°42'0 0.0 230 / 111015.7 12.5 42.6
2015-Mar-25 22:00N 41°30' W 081°42'0 0.0 240 / 141015.4 13.0 42.6
2015-Mar-25 21:00N 41°30' W 081°42'0 0.0 300 / 131015.1 6.1 42.6
2015-Mar-25 20:00N 41°30' W 081°42'0 0.0 250 / 171014.4 12.2 42.6
2015-Mar-25 19:00N 41°30' W 081°42'0 0.0 230 / 171013.4 12.7 42.6
2015-Mar-25 18:00N 41°30' W 081°42'0 0.0 240 / 201013.4 12.4 42.6
2015-Mar-25 16:00N 41°30' W 081°42'0 0.0 200 / 171012.0 11.3 42.6
2015-Mar-25 15:00N 41°30' W 081°42'0 0.0 150 / 161012.7 6.2 42.6
2015-Mar-25 14:00N 41°30' W 081°42'0 0.0 140 / 181013.0 4.5 42.6
2015-Mar-25 12:00N 41°30' W 081°42'0 0.0 150 / 241014.7 3.5 42.6
2015-Mar-25 11:00N 41°30' W 081°42'0 0.0 140 / 201016.4 3.3 42.6
2015-Mar-25 10:00N 41°30' W 081°42'0 0.0 150 / 151016.8 3.7 42.6
2015-Mar-25 09:00N 41°30' W 081°42'0 0.0 140 / 111018.1 3.0 42.6
2015-Mar-25 08:00N 41°30' W 081°42'0 0.0 150 / 101019.1 2.6 42.6
2015-Mar-25 07:00N 41°30' W 081°42'0 0.0 150 / 91020.5 2.0 42.6
2015-Mar-25 06:00N 41°30' W 081°42'0 0.0 140 / 51021.5 1.3 42.6
2015-Mar-25 05:00N 41°30' W 081°42'0 0.0 180 / 21022.2 1.7 42.6
2015-Mar-25 03:00N 41°30' W 081°42'0 0.0 050 / 31023.2 -1.0 42.6
2015-Mar-25 02:00N 41°30' W 081°42'0 0.0 080 / 31023.9 -1.2 42.6
2015-Mar-25 01:00N 41°30' W 081°42'0 0.0 060 / 61024.2 -1.5 42.6
2015-Mar-25 00:00N 41°30' W 081°42'0 0.0 060 / 121024.2 -1.4 42.6
2015-Mar-24 23:00N 41°30' W 081°42'0 0.0 050 / 151024.9 -1.0 42.6
2015-Mar-24 22:00N 41°30' W 081°42'0 0.0 050 / 141024.9 -1.1 42.6
2015-Mar-24 21:00N 41°30' W 081°42'0 0.0 050 / 151025.2 -1.4 42.6
2015-Mar-24 20:00N 41°30' W 081°42'0 0.0 050 / 141025.9 -2.4 42.4
2015-Mar-24 18:00N 41°30' W 081°42'0 0.0 030 / 121026.9 -2.7 42.6
2015-Mar-24 17:00N 41°30' W 081°42'0 0.0 040 / 101027.3 -3.2 42.6
2015-Mar-24 16:00N 41°30' W 081°42'0 0.0 020 / 61027.3 -3.4 42.6
2015-Mar-24 15:00N 41°30' W 081°42'0 0.0 030 / 71027.3 -4.5 42.6
2015-Mar-24 14:00N 41°30' W 081°42'0 0.0 040 / 101026.9 -5.6 42.6
2015-Mar-24 13:00N 41°30' W 081°42'0 0.0 040 / 101026.6 -5.9 42.6
2015-Mar-24 11:00N 41°30' W 081°42'0 0.0 040 / 91026.2 -5.9 42.6
2015-Mar-24 10:00N 41°30' W 081°42'0 0.0 060 / 141025.6 -6.1 42.6
2015-Mar-24 09:00N 41°30' W 081°42'0 0.0 050 / 161025.2 -5.9 42.6
2015-Mar-24 08:00N 41°30' W 081°42'0 0.0 050 / 131025.2 -5.8 42.6
2015-Mar-24 07:00N 41°30' W 081°42'0 0.0 060 / 111025.9 -5.4 42.6
2015-Mar-24 06:00N 41°30' W 081°42'0 0.0 040 / 111025.6 -5.2 42.6
2015-Mar-24 05:00N 41°30' W 081°42'0 0.0 040 / 111025.6 -5.0 42.6
2015-Mar-24 04:00N 41°30' W 081°42'0 0.0 040 / 101025.6 -5.0 42.6
2015-Mar-24 03:00N 41°30' W 081°42'0 0.0 050 / 121025.6 -4.8 42.6
2015-Mar-24 02:00N 41°30' W 081°42'0 0.0 030 / 91025.6 -4.5 42.6
2015-Mar-24 01:00N 41°30' W 081°42'0 0.0 030 / 71025.9 -4.2 42.6
2015-Mar-24 00:00N 41°30' W 081°42'0 0.0 050 / 71025.6 -3.7 42.6
2015-Mar-23 23:00N 41°30' W 081°42'0 0.0 010 / 71025.6 -3.3 42.6
2015-Mar-23 22:00N 41°30' W 081°42'0 0.0 020 / 81025.2 -3.6 42.6
2015-Mar-23 21:00N 41°30' W 081°42'0 0.0 020 / 141025.6 -3.8 42.6
2015-Mar-23 20:00N 41°30' W 081°42'0 0.0 020 / 131024.9 -3.6 42.6
2015-Mar-23 19:00N 41°30' W 081°42'0 0.0 350 / 71025.6 -2.9 42.6
2015-Mar-23 18:00N 41°30' W 081°42'0 0.0 040 / 71026.2 -2.5 42.6
2015-Mar-23 17:00N 41°30' W 081°42'0 0.0 030 / 141026.9 -3.5 42.6
2015-Mar-23 16:00N 41°30' W 081°42'0 0.0 030 / 161026.9 -3.7 40.9
2015-Mar-23 15:00N 41°30' W 081°42'0 0.0 040 / 141027.6 -3.7 42.0
2015-Mar-23 14:00N 41°30' W 081°42'0 0.0 050 / 111026.9 -3.3 42.6
2015-Mar-23 13:00N 41°30' W 081°42'0 0.0 070 / 61026.9 -2.7 42.4
2015-Mar-23 12:00N 41°30' W 081°42'0 0.0 130 / 51026.6 -3.3 42.4
2015-Mar-23 11:00N 41°30' W 081°42'0 0.0 120 / 21026.2 -3.9 42.0
2015-Mar-23 10:00N 41°30' W 081°42'0 0.0 060 / 61025.6 -4.6 41.9
2015-Mar-23 09:00N 41°30' W 081°42'0 0.0 090 / 21025.9 -4.4 42.6
2015-Mar-23 08:00N 41°30' W 081°42'0 0.0 140 / 31025.6 -4.4 42.6
2015-Mar-23 06:00N 41°30' W 081°42'0 0.0 150 / 21025.9 -4.1 42.6
2015-Mar-23 05:00N 41°30' W 081°42'0 0.0 160 / 41025.2 -3.9 42.6
2015-Mar-23 04:00N 41°30' W 081°42'0 0.0 180 / 21025.2 -3.7 42.6
2015-Mar-23 03:00N 41°30' W 081°42'0 0.0 140 / 51024.9 -3.5 42.6
2015-Mar-23 02:00N 41°30' W 081°42'0 0.0 130 / 41025.2 -3.5 42.6
2015-Mar-23 01:00N 41°30' W 081°42'0 0.0 050 / 51025.2 -3.7 42.5
2015-Mar-23 00:00N 41°30' W 081°42'0 0.0 060 / 51024.9 -4.0 42.6
2015-Mar-22 23:00N 41°30' W 081°42'0 0.0 050 / 31024.9 -3.8 42.6
2015-Mar-22 22:00N 41°30' W 081°42'0 0.0 340 / 61024.9 -2.8 42.6
2015-Mar-22 21:00N 41°30' W 081°42'0 0.0 360 / 81025.2 -2.7 42.4
2015-Mar-22 20:00N 41°30' W 081°42'0 0.0 340 / 71025.2 -3.1 42.6
2015-Mar-22 19:00N 41°30' W 081°42'0 0.0 350 / 71025.9 -3.1 42.6
2015-Mar-22 18:00N 41°30' W 081°42'0 0.0 340 / 71026.6 -3.9 42.6
2015-Mar-22 17:00N 41°30' W 081°42'0 0.0 020 / 81026.9 -4.9 42.2
2015-Mar-22 16:00N 41°30' W 081°42'0 0.0 010 / 91026.9 -4.9 42.5
2015-Mar-22 15:00N 41°30' W 081°42'0 0.0 010 / 111026.9 -5.2 42.6
2015-Mar-22 14:00N 41°30' W 081°42'0 0.0 1026.2 -5.2 42.6
2015-Mar-22 13:00N 41°30' W 081°42'0 0.0 020 / 141026.2 -5.4 42.6
2015-Mar-22 12:00N 41°30' W 081°42'0 0.0 010 / 121025.9 -4.9 42.6
2015-Mar-22 11:00N 41°30' W 081°42'0 0.0 020 / 161024.9 -4.9 42.6
2015-Mar-22 10:00N 41°30' W 081°42'0 0.0 020 / 171024.5 -4.3 42.6
2015-Mar-22 09:00N 41°30' W 081°42'0 0.0 010 / 91024.2 -3.2 42.6
2015-Mar-22 07:00N 41°30' W 081°42'0 0.0 020 / 111023.5 -2.5 42.6
2015-Mar-22 06:00N 41°30' W 081°42'0 0.0 020 / 91023.9 -1.8 42.6
2015-Mar-22 05:00N 41°30' W 081°42'0 0.0 020 / 101023.5 -1.3 42.5
2015-Mar-22 04:00N 41°30' W 081°42'0 0.0 1022.9 -0.0 42.6
2015-Mar-22 03:00N 41°30' W 081°42'0 0.0 030 / 41021.5 -0.1 42.6
2015-Mar-22 02:00N 41°30' W 081°42'0 0.0 050 / 31020.5 1.1 42.5
2015-Mar-22 01:00N 41°30' W 081°42'0 0.0 050 / 71019.5 1.9 42.0
2015-Mar-22 00:00N 41°30' W 081°42'0 0.0 250 / 11018.8 3.8 42.6
2015-Mar-21 23:00N 41°30' W 081°42'0 0.0 080 / 21019.1 4.2 42.6
2015-Mar-21 22:00N 41°30' W 081°42'0 0.0 350 / 81018.8 2.1 42.6
2015-Mar-21 21:00N 41°30' W 081°42'0 0.0 020 / 101018.1 1.8 42.6
2015-Mar-21 20:00N 41°30' W 081°42'0 0.0 290 / 101017.4 7.9 42.6
2015-Mar-21 19:00N 41°30' W 081°42'0 0.0 280 / 111017.1 6.4 42.6
2015-Mar-21 18:00N 41°30' W 081°42'0 0.0 300 / 71017.4 5.5 42.6
2015-Mar-21 17:00N 41°30' W 081°42'0 0.0 290 / 71017.1 3.6 42.6
2015-Mar-21 16:00N 41°30' W 081°42'0 0.0 320 / 141016.4 2.5 42.6
2015-Mar-21 15:00N 41°30' W 081°42'0 0.0 240 / 151016.8 7.6 42.6
2015-Mar-21 14:00N 41°30' W 081°42'0 0.0 240 / 181016.4 6.8 42.6
2015-Mar-21 13:00N 41°30' W 081°42'0 0.0 240 / 131016.1 6.3 42.6
2015-Mar-21 11:00N 41°30' W 081°42'0 0.0 230 / 111015.7 6.1 42.6
2015-Mar-21 10:00N 41°30' W 081°42'0 0.0 220 / 91015.7 6.2 42.4
2015-Mar-21 09:00N 41°30' W 081°42'0 0.0 230 / 61016.1 6.1 42.6
2015-Mar-21 08:00N 41°30' W 081°42'0 0.0 230 / 121016.4 6.0 42.6
2015-Mar-21 06:00N 41°30' W 081°42'0 0.0 230 / 91017.8 5.7 42.6
2015-Mar-21 05:00N 41°30' W 081°42'0 0.0 230 / 91017.8 5.5 42.6
2015-Mar-21 04:00N 41°30' W 081°42'0 0.0 250 / 91018.1 5.7 42.6
2015-Mar-21 03:00N 41°30' W 081°42'0 0.0 250 / 81018.1 6.3 42.5
2015-Mar-21 02:00N 41°30' W 081°42'0 0.0 180 / 61018.1 6.4 41.8
2015-Mar-21 01:00N 41°30' W 081°42'0 0.0 140 / 31018.1 6.5 42.6
2015-Mar-21 00:00N 41°30' W 081°42'0 0.0 230 / 11018.1 9.7 42.6
2015-Mar-20 23:00N 41°30' W 081°42'0 0.0 040 / 21017.8 6.6 42.6
2015-Mar-20 22:00N 41°30' W 081°42'0 0.0 340 / 41018.1 5.3 42.6
2015-Mar-20 21:00N 41°30' W 081°42'0 0.0 360 / 71018.8 4.5 42.6
2015-Mar-20 20:00N 41°30' W 081°42'0 0.0 330 / 91018.8 5.0 42.6
2015-Mar-20 19:00N 41°30' W 081°42'0 0.0 300 / 41018.8 4.6 42.6
2015-Mar-20 18:00N 41°30' W 081°42'0 0.0 320 / 41019.1 4.1 42.6
2015-Mar-20 17:00N 41°30' W 081°42'0 0.0 300 / 71019.5 2.5 39.9
2015-Mar-20 16:00N 41°30' W 081°42'0 0.0 290 / 71019.5 3.5 42.2
2015-Mar-20 15:00N 41°30' W 081°42'0 0.0 190 / 11019.8 0.4 42.0
2015-Mar-20 14:00N 41°30' W 081°42'0 0.0 020 / 21019.8 -0.1 41.8
2015-Mar-20 13:00N 41°30' W 081°42'0 0.0 140 / 21019.1 1.5 41.2
2015-Mar-20 12:00N 41°30' W 081°42'0 0.0 230 / 11019.1 0.5 42.1
2015-Mar-20 11:00N 41°30' W 081°42'0 0.0 290 / 21019.1 -0.5 42.4
2015-Mar-20 10:00N 41°30' W 081°42'0 0.0 030 / 21018.5 -0.6 42.0
2015-Mar-20 09:00N 41°30' W 081°42'0 0.0 040 / 91018.1 -0.9 42.6
2015-Mar-20 08:00N 41°30' W 081°42'0 0.0 040 / 81018.1 -0.7 41.7
2015-Mar-20 07:00N 41°30' W 081°42'0 0.0 160 / 41018.8 1.6 41.5
2015-Mar-20 06:00N 41°30' W 081°42'0 0.0 040 / 61019.5 -0.8 40.1
2015-Mar-20 05:00N 41°30' W 081°42'0 0.0 050 / 51020.5 -0.4 41.0
2015-Mar-20 04:00N 41°30' W 081°42'0 0.0 050 / 111021.8 -1.2 38.9
2015-Mar-20 03:00N 41°30' W 081°42'0 0.0 040 / 91022.2 -1.1 41.3
2015-Mar-20 02:00N 41°30' W 081°42'0 0.0 050 / 111022.5 -1.3 42.0
2015-Mar-20 01:00N 41°30' W 081°42'0 0.0 050 / 131022.5 -1.8 40.1
2015-Mar-20 00:00N 41°30' W 081°42'0 0.0 310 / 31022.9 1.3 42.6
2015-Mar-19 23:00N 41°30' W 081°42'0 0.0 010 / 41023.2 1.2 42.6
2015-Mar-19 22:00N 41°30' W 081°42'0 0.0 340 / 71022.9 2.0 42.6
2015-Mar-19 21:00N 41°30' W 081°42'0 0.0 360 / 101023.5 1.8 42.6
2015-Mar-19 20:00N 41°30' W 081°42'0 0.0 030 / 91023.9 2.4 42.6
2015-Mar-19 18:00N 41°30' W 081°42'0 0.0 030 / 121025.9 0.9 42.6
2015-Mar-19 17:00N 41°30' W 081°42'0 0.0 060 / 51026.9 1.0 42.6
2015-Mar-19 16:00N 41°30' W 081°42'0 0.0 040 / 121027.6 -0.5 42.6
2015-Mar-19 15:00N 41°30' W 081°42'0 0.0 020 / 61027.9 -0.5 42.6
2015-Mar-19 14:00N 41°30' W 081°42'0 0.0 130 / 61027.6 1.7 42.6
2015-Mar-19 13:00N 41°30' W 081°42'0 0.0 090 / 61027.6 0.2 42.6
2015-Mar-19 12:00N 41°30' W 081°42'0 0.0 060 / 61026.9 -2.6 42.6
2015-Mar-19 11:00N 41°30' W 081°42'0 0.0 050 / 91026.2 -3.1 42.6
2015-Mar-19 10:00N 41°30' W 081°42'0 0.0 050 / 61026.2 -2.8 42.6
2015-Mar-19 09:00N 41°30' W 081°42'0 0.0 050 / 71025.9 -2.8 42.6
2015-Mar-19 08:00N 41°30' W 081°42'0 0.0 1025.2 0.4 42.6
2015-Mar-19 07:00N 41°30' W 081°42'0 0.0 340 / 61024.9 0.9 42.6
2015-Mar-19 06:00N 41°30' W 081°42'0 0.0 060 / 61024.2 2.2 42.6
2015-Mar-19 04:00N 41°30' W 081°42'0 0.0 030 / 31023.9 1.7 42.6
2015-Mar-19 03:00N 41°30' W 081°42'0 0.0 180 / 21023.5 3.0 42.6
2015-Mar-19 02:00N 41°30' W 081°42'0 0.0 270 / 11023.5 3.1 42.6
2015-Mar-19 01:00N 41°30' W 081°42'0 0.0 320 / 21023.2 3.5 42.6
2015-Mar-19 00:00N 41°30' W 081°42'0 0.0 060 / 51023.2 1.4 42.6
2015-Mar-18 22:00N 41°30' W 081°42'0 0.0 270 / 131022.5 4.2 42.6
2015-Mar-18 21:00N 41°30' W 081°42'0 0.0 270 / 131022.5 3.4 42.6
2015-Mar-18 20:00N 41°30' W 081°42'0 0.0 280 / 141022.9 3.2 42.6
2015-Mar-18 19:00N 41°30' W 081°42'0 0.0 290 / 161023.2 3.2 42.6
2015-Mar-18 18:00N 41°30' W 081°42'0 0.0 280 / 141023.9 2.5 42.6
2015-Mar-18 17:00N 41°30' W 081°42'0 0.0 290 / 111024.5 2.4 42.6
2015-Mar-18 14:00N 41°30' W 081°42'0 0.0 280 / 121025.6 -0.6 42.6
2015-Mar-18 13:00N 41°30' W 081°42'0 0.0 260 / 91025.2 -0.9 42.6
2015-Mar-18 11:00N 41°30' W 081°42'0 0.0 290 / 31025.2 0.4 42.6
2015-Mar-18 09:00N 41°30' W 081°42'0 0.0 320 / 21024.2 1.5 42.6
2015-Mar-18 08:00N 41°30' W 081°42'0 0.0 350 / 71024.2 -0.9 42.6
2015-Mar-18 06:00N 41°30' W 081°42'0 0.0 340 / 81024.5 -1.1 42.6
2015-Mar-18 05:00N 41°30' W 081°42'0 0.0 350 / 81024.2 -0.4 42.6
2015-Mar-18 04:00N 41°30' W 081°42'0 0.0 360 / 131024.2 0.3 42.6
2015-Mar-18 03:00N 41°30' W 081°42'0 0.0 320 / 131023.5 1.3 42.6
2015-Mar-18 02:00N 41°30' W 081°42'0 0.0 260 / 41022.5 1.7 42.6
2015-Mar-18 00:00N 41°30' W 081°42'0 0.0 290 / 71021.8 2.0 42.6
2015-Mar-17 23:00N 41°30' W 081°42'0 0.0 320 / 61022.2 2.4 42.6
2015-Mar-17 21:00N 41°30' W 081°42'0 0.0 360 / 81021.8 1.4 42.6
2015-Mar-17 19:00N 41°30' W 081°42'0 0.0 360 / 111021.8 1.8 42.6
2015-Mar-17 17:00N 41°30' W 081°42'0 0.0 350 / 151021.5 1.7 42.6
2015-Mar-17 15:00N 41°30' W 081°42'0 0.0 360 / 131019.8 1.5 42.6
2015-Mar-17 14:00N 41°30' W 081°42'0 0.0 360 / 191018.8 2.1 42.6
2015-Mar-17 13:00N 41°30' W 081°42'0 0.0 340 / 151016.4 3.4 42.6
2015-Mar-17 12:00N 41°30' W 081°42'0 0.0 310 / 71014.7 3.8 42.6
2015-Mar-17 11:00N 41°30' W 081°42'0 0.0 1013.0 3.3 42.6
2015-Mar-17 10:00N 41°30' W 081°42'0 0.0 330 / 91012.0 3.3 42.6
2015-Mar-17 08:00N 41°30' W 081°42'   010 / 141008.6 7.4 42.6

Dump ship's entire track history